createdAt,value
2019-01-08T00:00:19.491Z,-0.60
2019-01-08T00:03:01.744Z,-0.70
2019-01-08T00:05:43.726Z,-0.70
2019-01-08T00:08:26.303Z,-0.70
2019-01-08T00:11:08.162Z,-0.70
2019-01-08T00:13:48.646Z,-0.70
2019-01-08T00:16:38.010Z,-0.70
2019-01-08T00:19:21.800Z,-0.70
2019-01-08T00:22:03.467Z,-0.70
2019-01-08T00:24:45.270Z,-0.80
2019-01-08T00:27:25.746Z,-0.80
2019-01-08T00:30:15.202Z,-0.80
2019-01-08T00:32:59.042Z,-0.80
2019-01-08T00:35:29.362Z,-0.90
2019-01-08T00:38:19.166Z,-1.00
2019-01-08T00:41:01.614Z,-0.90
2019-01-08T00:43:43.543Z,-0.90
2019-01-08T00:46:25.795Z,-0.90
2019-01-08T00:49:07.828Z,-1.00
2019-01-08T00:51:49.951Z,-1.00
2019-01-08T00:54:31.679Z,-1.00
2019-01-08T00:57:13.898Z,-1.00
2019-01-08T00:59:56.010Z,-1.00
2019-01-08T01:02:37.712Z,-0.90
2019-01-08T01:05:08.129Z,-0.90
2019-01-08T01:07:38.435Z,-0.90
2019-01-08T01:10:22.344Z,-1.00
2019-01-08T01:13:04.466Z,-0.90
2019-01-08T01:15:46.222Z,-0.90
2019-01-08T01:18:28.310Z,-1.00
2019-01-08T01:21:09.984Z,-0.90
2019-01-08T01:23:51.775Z,-0.90
2019-01-08T01:26:22.195Z,-0.90
2019-01-08T01:29:13.014Z,-0.90
2019-01-08T01:31:56.190Z,-0.90
2019-01-08T01:34:37.949Z,-1.10
2019-01-08T01:37:19.811Z,-1.10
2019-01-08T01:40:01.516Z,-1.20
2019-01-08T01:42:43.301Z,-1.30
2019-01-08T01:45:24.975Z,-1.30
2019-01-08T01:48:06.743Z,-1.40
2019-01-08T01:50:48.522Z,-1.40
2019-01-08T01:53:30.491Z,-1.40
2019-01-08T01:56:12.258Z,-1.50
2019-01-08T01:58:54.767Z,-1.50
2019-01-08T02:01:36.722Z,-1.60
2019-01-08T02:04:18.714Z,-1.70
2019-01-08T02:07:00.575Z,-1.70
2019-01-08T02:09:42.630Z,-1.70
2019-01-08T02:12:24.278Z,-1.70
2019-01-08T02:15:06.211Z,-1.80
2019-01-08T02:17:48.059Z,-1.90
2019-01-08T02:20:29.773Z,-2.00
2019-01-08T02:23:11.447Z,-2.10
2019-01-08T02:25:53.223Z,-2.10
2019-01-08T02:28:35.279Z,-2.20
2019-01-08T02:31:05.678Z,-2.20
2019-01-08T02:33:56.570Z,-2.30
2019-01-08T02:36:39.972Z,-2.40
2019-01-08T02:39:22.225Z,-2.40
2019-01-08T02:42:04.599Z,-2.50
2019-01-08T02:44:46.925Z,-2.50
2019-01-08T02:47:28.800Z,-2.60
2019-01-08T02:50:10.764Z,-2.50
2019-01-08T02:52:53.234Z,-2.60
2019-01-08T02:55:35.062Z,-2.50
2019-01-08T02:58:17.022Z,-2.60
2019-01-08T03:00:59.250Z,-2.60
2019-01-08T03:03:41.071Z,-2.70
2019-01-08T03:06:23.113Z,-2.60
2019-01-08T03:09:05.443Z,-2.60
2019-01-08T03:11:47.510Z,-2.60
2019-01-08T03:14:29.888Z,-2.50
2019-01-08T03:17:11.990Z,-2.50
2019-01-08T03:19:53.987Z,-2.50
2019-01-08T03:22:35.725Z,-2.50
2019-01-08T03:25:16.208Z,-2.40
2019-01-08T03:28:05.542Z,-2.30
2019-01-08T03:30:49.191Z,-2.30
2019-01-08T03:33:31.159Z,-2.30
2019-01-08T03:36:13.158Z,-2.20
2019-01-08T03:38:55.091Z,-2.20
2019-01-08T03:41:35.546Z,-2.20
2019-01-08T03:44:24.951Z,-2.10
2019-01-08T03:47:08.966Z,-2.10
2019-01-08T03:49:51.044Z,-2.10
2019-01-08T03:52:32.905Z,-2.00
2019-01-08T03:55:14.543Z,-2.00
2019-01-08T03:57:56.510Z,-1.90
2019-01-08T04:00:38.342Z,-1.90
2019-01-08T04:03:20.494Z,-1.80
2019-01-08T04:06:02.971Z,-1.80
2019-01-08T04:11:17.890Z,-1.80
2019-01-08T04:14:00.066Z,-1.80
2019-01-08T04:16:30.445Z,-1.80
2019-01-08T04:19:21.310Z,-1.80
2019-01-08T04:22:04.750Z,-1.80
2019-01-08T04:24:46.691Z,-1.80
2019-01-08T04:27:29.246Z,-1.80
2019-01-08T04:30:11.134Z,-1.90
2019-01-08T04:32:53.742Z,-2.00
2019-01-08T04:35:35.993Z,-2.00
2019-01-08T04:38:18.234Z,-2.10
2019-01-08T04:41:00.156Z,-2.10
2019-01-08T04:43:42.809Z,-2.10
2019-01-08T04:46:24.802Z,-2.10
2019-01-08T04:49:06.983Z,-2.10
2019-01-08T04:51:48.654Z,-2.20
2019-01-08T04:54:30.974Z,-2.10
2019-01-08T04:57:13.010Z,-2.20
2019-01-08T04:59:58.860Z,-2.20
2019-01-08T05:02:38.689Z,-2.20
2019-01-08T05:05:20.578Z,-2.20
2019-01-08T05:08:03.150Z,-2.20
2019-01-08T05:10:45.119Z,-2.20
2019-01-08T05:13:27.126Z,-2.20
2019-01-08T05:16:09.654Z,-2.20
2019-01-08T05:18:51.917Z,-2.20
2019-01-08T05:21:33.926Z,-2.20
2019-01-08T05:24:15.698Z,-2.30
2019-01-08T05:27:00.280Z,-2.20
2019-01-08T05:29:42.133Z,-2.30
2019-01-08T05:32:24.318Z,-2.30
2019-01-08T05:35:06.674Z,-2.40
2019-01-08T05:37:48.921Z,-2.40
2019-01-08T05:40:31.101Z,-2.40
2019-01-08T05:43:13.471Z,-2.40
2019-01-08T05:45:55.639Z,-2.30
2019-01-08T05:48:38.013Z,-2.20
2019-01-08T05:51:20.061Z,-2.20
2019-01-08T05:54:02.362Z,-2.20
2019-01-08T05:56:44.169Z,-2.10
2019-01-08T05:59:25.919Z,-2.10
2019-01-08T06:02:08.186Z,-2.10
2019-01-08T06:04:50.124Z,-2.10
2019-01-08T06:07:31.998Z,-2.10
2019-01-08T06:10:13.633Z,-2.00
2019-01-08T06:12:55.754Z,-2.00
2019-01-08T06:15:37.480Z,-2.00
2019-01-08T06:18:19.138Z,-2.00
2019-01-08T06:21:01.570Z,-2.00
2019-01-08T06:23:44.053Z,-1.90
2019-01-08T06:26:25.997Z,-2.00
2019-01-08T06:29:08.006Z,-2.00
2019-01-08T06:31:49.845Z,-2.10
2019-01-08T06:34:32.042Z,-2.10
2019-01-08T06:37:14.295Z,-2.10
2019-01-08T06:39:56.371Z,-2.00
2019-01-08T06:42:38.726Z,-2.00
2019-01-08T06:45:20.923Z,-2.00
2019-01-08T06:48:02.882Z,-2.00
2019-01-08T06:50:44.920Z,-2.00
2019-01-08T06:53:26.782Z,-2.00
2019-01-08T06:56:08.758Z,-2.00
2019-01-08T06:58:51.271Z,-2.00
2019-01-08T07:01:32.991Z,-2.00
2019-01-08T07:04:14.794Z,-2.10
2019-01-08T07:06:57.174Z,-2.00
2019-01-08T07:09:39.420Z,-2.10
2019-01-08T07:12:21.546Z,-2.00
2019-01-08T07:15:03.738Z,-2.00
2019-01-08T07:17:45.314Z,-1.90
2019-01-08T07:20:27.350Z,-1.60
2019-01-08T07:23:09.318Z,-1.50
2019-01-08T07:25:51.015Z,-1.50
2019-01-08T07:28:33.318Z,-1.40
2019-01-08T07:31:15.578Z,-1.30
2019-01-08T07:33:57.445Z,-1.30
2019-01-08T07:36:39.558Z,-1.40
2019-01-08T07:39:21.530Z,-1.50
2019-01-08T07:42:03.365Z,-1.50
2019-01-08T07:44:45.294Z,-1.40
2019-01-08T07:47:27.203Z,-1.40
2019-01-08T07:50:09.494Z,-1.50
2019-01-08T07:52:51.538Z,-1.50
2019-01-08T07:55:35.243Z,-1.50
2019-01-08T07:58:17.383Z,-1.50
2019-01-08T08:00:59.769Z,-1.50
2019-01-08T08:03:42.347Z,-1.50
2019-01-08T08:06:24.130Z,-1.50
2019-01-08T08:09:06.349Z,-1.50
2019-01-08T08:11:48.651Z,-1.50
2019-01-08T08:14:30.918Z,-1.50
2019-01-08T08:17:13.059Z,-1.40
2019-01-08T08:19:54.703Z,-1.40
2019-01-08T08:22:36.436Z,-1.20
2019-01-08T08:25:18.371Z,-1.20
2019-01-08T08:28:00.223Z,-1.10
2019-01-08T08:30:42.004Z,-1.10
2019-01-08T08:33:23.966Z,-1.10
2019-01-08T08:36:05.838Z,-1.10
2019-01-08T08:38:47.591Z,-1.00
2019-01-08T08:41:29.637Z,-0.90
2019-01-08T08:44:11.577Z,-0.90
2019-01-08T08:46:53.501Z,-0.80
2019-01-08T08:49:35.871Z,-0.90
2019-01-08T08:52:17.671Z,-0.80
2019-01-08T08:54:59.589Z,-0.80
2019-01-08T08:57:41.878Z,-0.80
2019-01-08T09:00:24.227Z,-0.70
2019-01-08T09:03:06.086Z,-0.70
2019-01-08T09:05:48.042Z,-0.70
2019-01-08T09:08:30.171Z,-0.60
2019-01-08T09:11:12.206Z,-0.60
2019-01-08T09:13:54.010Z,-0.50
2019-01-08T09:16:36.203Z,-0.60
2019-01-08T09:19:17.943Z,-0.60
2019-01-08T09:21:58.345Z,-0.60
2019-01-08T09:24:47.685Z,-0.60
2019-01-08T09:27:31.462Z,-0.50
2019-01-08T09:30:13.958Z,-0.30
2019-01-08T09:32:56.058Z,-0.20
2019-01-08T09:35:37.942Z,-0.10
2019-01-08T09:38:19.670Z,-0.10
2019-01-08T09:41:01.903Z,0.00
2019-01-08T09:43:44.682Z,0.10
2019-01-08T09:46:27.022Z,0.20
2019-01-08T09:49:09.335Z,0.20
2019-01-08T09:51:51.411Z,0.30
2019-01-08T09:54:33.898Z,0.30
2019-01-08T09:57:15.615Z,0.40
2019-01-08T09:59:57.482Z,0.30
2019-01-08T10:02:39.702Z,0.40
2019-01-08T10:05:22.010Z,0.50
2019-01-08T10:08:03.950Z,0.40
2019-01-08T10:10:46.057Z,0.40
2019-01-08T10:13:27.899Z,0.40
2019-01-08T10:16:09.666Z,0.40
2019-01-08T10:18:52.371Z,0.50
2019-01-08T10:21:34.038Z,0.50
2019-01-08T10:24:16.266Z,0.60
2019-01-08T10:26:58.374Z,0.80
2019-01-08T10:29:40.370Z,1.50
2019-01-08T10:32:22.309Z,2.10
2019-01-08T10:35:04.262Z,2.30
2019-01-08T10:37:46.150Z,2.80
2019-01-08T10:40:28.029Z,2.90
2019-01-08T10:43:10.066Z,3.00
2019-01-08T10:45:52.019Z,3.00
2019-01-08T10:48:34.105Z,3.30
2019-01-08T10:51:16.016Z,3.30
2019-01-08T10:53:57.728Z,3.20
2019-01-08T10:56:40.075Z,3.10
2019-01-08T10:59:22.343Z,2.80
2019-01-08T11:02:04.483Z,2.60
2019-01-08T11:04:47.106Z,2.60
2019-01-08T11:07:28.791Z,2.40
2019-01-08T11:10:10.501Z,2.30
2019-01-08T11:12:52.570Z,2.20
2019-01-08T11:15:34.518Z,2.10
2019-01-08T11:18:16.898Z,2.20
2019-01-08T11:20:58.747Z,2.50
2019-01-08T11:23:40.618Z,2.70
2019-01-08T11:26:22.418Z,3.30
2019-01-08T11:29:04.187Z,3.10
2019-01-08T11:31:48.961Z,3.20
2019-01-08T11:34:30.214Z,3.30
2019-01-08T11:37:11.871Z,3.40
2019-01-08T11:39:54.019Z,3.30
2019-01-08T11:42:35.670Z,3.30
2019-01-08T11:45:17.682Z,3.20
2019-01-08T11:48:04.224Z,2.90
2019-01-08T11:50:43.682Z,2.80
2019-01-08T11:53:26.139Z,2.70
2019-01-08T11:56:08.427Z,2.80
2019-01-08T11:58:48.938Z,2.80
2019-01-08T12:01:38.315Z,2.70
2019-01-08T12:04:22.185Z,2.70
2019-01-08T12:07:04.387Z,2.80
2019-01-08T12:09:46.831Z,2.80
2019-01-08T12:12:28.569Z,2.90
2019-01-08T12:15:10.902Z,2.90
2019-01-08T12:17:52.919Z,2.90
2019-01-08T12:20:34.973Z,2.70
2019-01-08T12:23:16.810Z,2.70
2019-01-08T12:25:58.814Z,2.80
2019-01-08T12:28:40.822Z,2.90
2019-01-08T12:31:22.982Z,3.00
2019-01-08T12:34:05.169Z,2.90
2019-01-08T12:36:47.258Z,2.90
2019-01-08T12:39:29.130Z,2.90
2019-01-08T12:42:11.243Z,2.90
2019-01-08T12:44:53.206Z,3.00
2019-01-08T12:47:35.426Z,3.00
2019-01-08T12:50:17.687Z,3.10
2019-01-08T12:52:59.530Z,3.20
2019-01-08T12:55:41.319Z,3.30
2019-01-08T12:58:23.355Z,3.40
2019-01-08T13:01:05.767Z,3.60
2019-01-08T13:03:47.678Z,3.70
2019-01-08T13:06:29.579Z,3.80
2019-01-08T13:09:11.270Z,3.90
2019-01-08T13:11:53.889Z,4.00
2019-01-08T13:14:35.953Z,4.10
2019-01-08T13:17:18.091Z,4.10
2019-01-08T13:19:59.959Z,4.10
2019-01-08T13:22:42.010Z,4.10
2019-01-08T13:25:24.264Z,4.00
2019-01-08T13:28:06.790Z,4.00
2019-01-08T13:30:48.798Z,4.00
2019-01-08T13:33:30.722Z,3.90
2019-01-08T13:36:12.567Z,3.80
2019-01-08T13:38:54.904Z,3.70
2019-01-08T13:41:36.687Z,3.60
2019-01-08T13:44:18.826Z,3.50
2019-01-08T13:47:00.928Z,3.30
2019-01-08T13:49:43.022Z,3.20
2019-01-08T13:52:24.897Z,3.10
2019-01-08T13:55:06.646Z,3.00
2019-01-08T13:57:48.602Z,2.90
2019-01-08T14:00:31.657Z,2.90
2019-01-08T14:03:13.618Z,2.70
2019-01-08T14:05:55.694Z,2.60
2019-01-08T14:08:37.563Z,2.50
2019-01-08T14:11:19.543Z,2.30
2019-01-08T14:14:02.226Z,2.30
2019-01-08T14:16:44.304Z,2.20
2019-01-08T14:19:26.230Z,2.20
2019-01-08T14:22:08.075Z,2.20
2019-01-08T14:24:50.883Z,2.30
2019-01-08T14:27:33.210Z,2.60
2019-01-08T14:30:15.154Z,2.80
2019-01-08T14:32:57.442Z,2.90
2019-01-08T14:35:39.242Z,2.90
2019-01-08T14:38:20.954Z,2.90
2019-01-08T14:41:03.290Z,2.90
2019-01-08T14:43:43.959Z,2.90
2019-01-08T14:46:33.283Z,3.00
2019-01-08T14:49:16.759Z,2.90
2019-01-08T14:51:58.778Z,2.90
2019-01-08T14:54:40.514Z,2.90
2019-01-08T14:57:22.282Z,2.90
2019-01-08T15:00:04.234Z,2.70
2019-01-08T15:02:49.670Z,2.50
2019-01-08T15:05:30.154Z,2.30
2019-01-08T15:08:12.221Z,2.10
2019-01-08T15:10:54.281Z,2.00
2019-01-08T15:13:36.283Z,1.80
2019-01-08T15:16:18.538Z,1.70
2019-01-08T15:19:01.142Z,1.60
2019-01-08T15:21:43.154Z,1.50
2019-01-08T15:24:25.379Z,1.40
2019-01-08T15:27:07.119Z,1.40
2019-01-08T15:29:49.254Z,1.30
2019-01-08T15:32:31.582Z,1.20
2019-01-08T15:35:13.839Z,1.10
2019-01-08T15:37:56.048Z,1.40
2019-01-08T15:40:36.510Z,1.70
2019-01-08T15:43:25.835Z,1.60
2019-01-08T15:46:09.663Z,1.30
2019-01-08T15:48:52.114Z,1.00
2019-01-08T15:51:33.876Z,0.90
2019-01-08T15:54:15.930Z,0.70
2019-01-08T15:56:58.217Z,0.50
2019-01-08T15:59:40.177Z,0.30
2019-01-08T16:02:22.027Z,0.20
2019-01-08T16:05:03.789Z,0.10
2019-01-08T16:07:45.793Z,0.00
2019-01-08T16:10:27.748Z,-0.10
2019-01-08T16:13:09.367Z,-0.20
2019-01-08T16:15:51.494Z,-0.20
2019-01-08T16:18:33.853Z,-0.30
2019-01-08T16:21:15.525Z,-0.30
2019-01-08T16:23:57.633Z,-0.30
2019-01-08T16:26:39.441Z,-0.30
2019-01-08T16:29:21.798Z,-0.40
2019-01-08T16:32:03.746Z,-0.50
2019-01-08T16:34:45.870Z,-0.60
2019-01-08T16:37:16.162Z,-0.70
2019-01-08T16:40:07.569Z,-0.80
2019-01-08T16:42:51.154Z,-0.90
2019-01-08T16:45:33.094Z,-1.00
2019-01-08T16:48:14.963Z,-1.00
2019-01-08T16:50:56.650Z,-1.00
2019-01-08T16:53:41.480Z,-1.00
2019-01-08T16:56:23.074Z,-1.00
2019-01-08T16:59:05.174Z,-1.10
2019-01-08T17:01:47.117Z,-1.00
2019-01-08T17:04:29.572Z,-1.00
2019-01-08T17:07:12.348Z,-1.00
2019-01-08T17:09:54.539Z,-0.90
2019-01-08T17:12:36.546Z,-0.90
2019-01-08T17:15:18.586Z,-0.80
2019-01-08T17:18:00.726Z,-0.80
2019-01-08T17:20:42.678Z,-0.70
2019-01-08T17:23:24.611Z,-0.70
2019-01-08T17:26:06.325Z,-0.60
2019-01-08T17:28:48.183Z,-0.70
2019-01-08T17:31:30.223Z,-0.60
2019-01-08T17:34:11.905Z,-0.70
2019-01-08T17:36:53.706Z,-0.70
2019-01-08T17:39:35.403Z,-0.70
2019-01-08T17:42:17.210Z,-0.70
2019-01-08T17:44:59.107Z,-0.80
2019-01-08T17:47:41.682Z,-0.90
2019-01-08T17:50:23.706Z,-1.00
2019-01-08T17:53:05.526Z,-1.00
2019-01-08T17:55:47.781Z,-1.10
2019-01-08T17:58:30.222Z,-1.20
2019-01-08T18:01:11.921Z,-1.20
2019-01-08T18:03:53.863Z,-1.10
2019-01-08T18:06:36.270Z,-0.80
2019-01-08T18:12:07.322Z,-1.00
2019-01-08T18:14:58.138Z,-1.10
2019-01-08T18:17:41.861Z,-1.20
2019-01-08T18:20:24.034Z,-1.40
2019-01-08T18:23:05.846Z,-1.50
2019-01-08T18:25:48.285Z,-1.50
2019-01-08T18:28:30.154Z,-1.60
2019-01-08T18:31:12.287Z,-1.60
2019-01-08T18:33:54.086Z,-1.60
2019-01-08T18:36:36.334Z,-1.60
2019-01-08T18:39:18.160Z,-1.80
2019-01-08T18:41:59.828Z,-1.80
2019-01-08T18:44:42.153Z,-1.90
2019-01-08T18:47:24.228Z,-1.90
2019-01-08T18:50:06.218Z,-1.90
2019-01-08T18:52:48.477Z,-1.90
2019-01-08T18:55:30.158Z,-1.90
2019-01-08T18:58:12.034Z,-1.90
2019-01-08T19:00:53.677Z,-2.00
2019-01-08T19:03:35.476Z,-2.00
2019-01-08T19:06:17.720Z,-1.90
2019-01-08T19:09:00.241Z,-1.90
2019-01-08T19:11:42.055Z,-2.00
2019-01-08T19:14:24.575Z,-2.10
2019-01-08T19:17:06.769Z,-1.90
2019-01-08T19:19:49.110Z,-0.90
2019-01-08T19:22:31.208Z,-0.10
2019-01-08T19:25:13.274Z,-0.40
2019-01-08T19:27:54.899Z,-0.90
2019-01-08T19:30:37.420Z,-1.20
2019-01-08T19:33:20.245Z,-1.50
2019-01-08T19:36:02.278Z,-1.60
2019-01-08T19:38:43.957Z,-1.80
2019-01-08T19:41:28.042Z,-1.50
2019-01-08T19:44:10.242Z,-0.80
2019-01-08T19:46:52.462Z,-1.00
2019-01-08T19:49:34.874Z,-1.20
2019-01-08T19:52:16.582Z,-1.40
2019-01-08T19:54:58.790Z,-1.60
2019-01-08T19:57:40.490Z,-1.80
2019-01-08T20:00:22.643Z,-2.00
2019-01-08T20:03:04.356Z,-2.10
2019-01-08T20:05:46.055Z,-2.20
2019-01-08T20:08:28.462Z,-2.30
2019-01-08T20:11:10.210Z,-2.30
2019-01-08T20:13:51.971Z,-2.30
2019-01-08T20:16:34.038Z,-2.40
2019-01-08T20:19:16.330Z,-2.20
2019-01-08T20:21:58.869Z,-2.00
2019-01-08T20:24:41.054Z,-2.00
2019-01-08T20:27:23.251Z,-2.10
2019-01-08T20:30:05.241Z,-2.20
2019-01-08T20:32:47.135Z,-2.20
2019-01-08T20:35:29.110Z,-2.30
2019-01-08T20:38:11.672Z,-2.30
2019-01-08T20:40:53.795Z,-2.30
2019-01-08T20:43:35.694Z,-2.30
2019-01-08T20:46:17.434Z,-2.40
2019-01-08T20:48:59.187Z,-2.40
2019-01-08T20:51:41.530Z,-2.50
2019-01-08T20:54:23.787Z,-2.60
2019-01-08T20:57:09.238Z,-2.60
2019-01-08T20:59:49.079Z,-2.40
2019-01-08T21:02:29.574Z,-2.20
2019-01-08T21:05:19.370Z,-2.30
2019-01-08T21:08:08.511Z,-2.30
2019-01-08T21:10:50.391Z,-2.30
2019-01-08T21:13:32.888Z,-2.30
2019-01-08T21:16:14.701Z,-2.20
2019-01-08T21:18:56.638Z,-2.20
2019-01-08T21:21:38.532Z,-2.20
2019-01-08T21:24:28.193Z,-2.10
2019-01-08T21:27:04.928Z,-2.00
2019-01-08T21:29:46.947Z,-1.80
2019-01-08T21:32:29.438Z,-1.70
2019-01-08T21:35:12.026Z,-1.70
2019-01-08T21:37:53.774Z,-1.70
2019-01-08T21:40:35.374Z,-1.50
2019-01-08T21:43:15.794Z,-1.30
2019-01-08T21:46:05.281Z,-1.10
2019-01-08T21:48:49.079Z,-0.80
2019-01-08T21:51:31.101Z,-0.70
2019-01-08T21:54:13.590Z,-0.60
2019-01-08T21:56:55.467Z,-0.70
2019-01-08T21:59:38.235Z,-0.60
2019-01-08T22:02:20.289Z,-0.60
2019-01-08T22:05:02.366Z,-0.50
2019-01-08T22:07:44.167Z,-0.50
2019-01-08T22:10:25.982Z,-0.40
2019-01-08T22:13:07.565Z,-0.40
2019-01-08T22:15:49.571Z,-0.40
2019-01-08T22:18:31.470Z,-0.30
2019-01-08T22:21:13.275Z,-0.40
2019-01-08T22:23:55.374Z,-0.30
2019-01-08T22:26:37.226Z,-0.30
2019-01-08T22:29:19.427Z,-0.30
2019-01-08T22:32:01.184Z,-0.20
2019-01-08T22:34:43.082Z,-0.20
2019-01-08T22:37:26.784Z,-0.20
2019-01-08T22:40:08.954Z,-0.20
2019-01-08T22:42:51.126Z,-0.30
2019-01-08T22:45:21.545Z,-0.30
2019-01-08T22:48:12.394Z,-0.30
2019-01-08T22:50:54.256Z,-0.30
2019-01-08T22:53:36.014Z,-0.30
2019-01-08T22:56:17.827Z,-0.30
2019-01-08T22:58:59.773Z,-0.20
2019-01-08T23:01:43.410Z,-0.20
2019-01-08T23:04:24.032Z,-0.20
2019-01-08T23:07:13.479Z,-0.10
2019-01-08T23:10:14.824Z,-0.10
2019-01-08T23:12:56.791Z,-0.10
2019-01-08T23:15:38.807Z,-0.10
2019-01-08T23:18:21.075Z,-0.20
2019-01-08T23:21:03.313Z,-0.20
2019-01-08T23:23:45.066Z,-0.20
2019-01-08T23:26:27.372Z,-0.20
2019-01-08T23:29:09.295Z,-0.20
2019-01-08T23:31:51.658Z,-0.20
2019-01-08T23:34:33.792Z,-0.30
2019-01-08T23:37:15.778Z,-0.40
2019-01-08T23:39:57.674Z,-0.40
2019-01-08T23:42:39.493Z,-0.30
2019-01-08T23:45:21.450Z,-0.30
2019-01-08T23:48:03.293Z,-0.30
2019-01-08T23:50:44.956Z,-0.30
2019-01-08T23:53:27.491Z,-0.30
2019-01-08T23:56:09.454Z,-0.30
2019-01-08T23:58:51.236Z,-0.30
